sensor_id;sensor_type;location;lat;lon;timestamp;P1;durP1;ratioP1;P2;durP2;ratioP2
11847;SDS011;5983;49.966;8.052;2022-12-07T00:00:39;7.07;;;4.80;;
11847;SDS011;5983;49.966;8.052;2022-12-07T00:03:16;6.77;;;4.77;;
11847;SDS011;5983;49.966;8.052;2022-12-07T00:05:43;7.73;;;4.37;;
11847;SDS011;5983;49.966;8.052;2022-12-07T00:08:11;6.03;;;4.47;;
11847;SDS011;5983;49.966;8.052;2022-12-07T00:10:38;7.20;;;4.33;;
11847;SDS011;5983;49.966;8.052;2022-12-07T00:13:05;4.90;;;3.90;;
11847;SDS011;5983;49.966;8.052;2022-12-07T00:15:33;5.67;;;4.03;;
11847;SDS011;5983;49.966;8.052;2022-12-07T00:28:06;6.53;;;3.40;;
11847;SDS011;5983;49.966;8.052;2022-12-07T00:30:34;6.33;;;4.07;;
11847;SDS011;5983;49.966;8.052;2022-12-07T00:33:01;5.63;;;4.20;;
11847;SDS011;5983;49.966;8.052;2022-12-07T00:35:28;5.53;;;3.90;;
11847;SDS011;5983;49.966;8.052;2022-12-07T00:37:55;8.20;;;4.97;;
11847;SDS011;5983;49.966;8.052;2022-12-07T00:40:22;6.50;;;4.50;;
11847;SDS011;5983;49.966;8.052;2022-12-07T00:42:50;5.83;;;4.00;;
11847;SDS011;5983;49.966;8.052;2022-12-07T00:45:17;6.57;;;3.83;;
11847;SDS011;5983;49.966;8.052;2022-12-07T00:47:44;7.50;;;4.17;;
11847;SDS011;5983;49.966;8.052;2022-12-07T00:50:11;7.10;;;4.63;;
11847;SDS011;5983;49.966;8.052;2022-12-07T00:52:38;6.73;;;3.97;;
11847;SDS011;5983;49.966;8.052;2022-12-07T00:55:05;5.97;;;3.97;;
11847;SDS011;5983;49.966;8.052;2022-12-07T00:57:33;5.87;;;3.87;;
11847;SDS011;5983;49.966;8.052;2022-12-07T01:00:01;5.47;;;4.07;;
11847;SDS011;5983;49.966;8.052;2022-12-07T01:02:28;5.90;;;3.73;;
11847;SDS011;5983;49.966;8.052;2022-12-07T01:04:55;5.83;;;3.70;;
11847;SDS011;5983;49.966;8.052;2022-12-07T01:07:22;5.40;;;3.97;;
11847;SDS011;5983;49.966;8.052;2022-12-07T01:09:49;6.40;;;3.57;;
11847;SDS011;5983;49.966;8.052;2022-12-07T01:12:16;6.10;;;3.73;;
11847;SDS011;5983;49.966;8.052;2022-12-07T01:14:43;6.73;;;4.20;;
11847;SDS011;5983;49.966;8.052;2022-12-07T01:17:11;6.27;;;3.90;;
11847;SDS011;5983;49.966;8.052;2022-12-07T01:19:38;6.60;;;4.00;;
11847;SDS011;5983;49.966;8.052;2022-12-07T01:22:05;6.17;;;3.73;;
11847;SDS011;5983;49.966;8.052;2022-12-07T01:24:32;6.90;;;3.90;;
11847;SDS011;5983;49.966;8.052;2022-12-07T01:26:59;6.13;;;3.90;;
11847;SDS011;5983;49.966;8.052;2022-12-07T01:29:26;5.93;;;3.67;;
11847;SDS011;5983;49.966;8.052;2022-12-07T01:31:53;6.03;;;3.80;;
11847;SDS011;5983;49.966;8.052;2022-12-07T01:34:21;4.73;;;3.47;;
11847;SDS011;5983;49.966;8.052;2022-12-07T01:36:48;4.07;;;3.53;;
11847;SDS011;5983;49.966;8.052;2022-12-07T01:39:15;6.40;;;3.67;;
11847;SDS011;5983;49.966;8.052;2022-12-07T01:41:42;5.50;;;3.40;;
11847;SDS011;5983;49.966;8.052;2022-12-07T01:44:11;5.60;;;3.80;;
11847;SDS011;5983;49.966;8.052;2022-12-07T01:46:43;12.13;;;3.80;;
11847;SDS011;5983;49.966;8.052;2022-12-07T01:49:14;7.00;;;3.57;;
11847;SDS011;5983;49.966;8.052;2022-12-07T01:51:51;5.87;;;3.80;;
11847;SDS011;5983;49.966;8.052;2022-12-07T01:54:27;6.53;;;4.00;;
11847;SDS011;5983;49.966;8.052;2022-12-07T01:56:54;4.60;;;3.60;;
11847;SDS011;5983;49.966;8.052;2022-12-07T01:59:24;5.80;;;3.73;;
11847;SDS011;5983;49.966;8.052;2022-12-07T02:01:52;6.73;;;3.93;;
11847;SDS011;5983;49.966;8.052;2022-12-07T02:04:22;6.37;;;3.77;;
11847;SDS011;5983;49.966;8.052;2022-12-07T02:06:51;7.00;;;4.00;;
11847;SDS011;5983;49.966;8.052;2022-12-07T02:09:20;6.50;;;3.53;;
11847;SDS011;5983;49.966;8.052;2022-12-07T02:11:47;4.00;;;3.20;;
11847;SDS011;5983;49.966;8.052;2022-12-07T02:14:15;9.03;;;3.23;;
11847;SDS011;5983;49.966;8.052;2022-12-07T02:16:45;4.30;;;2.77;;
11847;SDS011;5983;49.966;8.052;2022-12-07T02:19:50;6.53;;;3.40;;
11847;SDS011;5983;49.966;8.052;2022-12-07T02:26:23;3.87;;;2.93;;
11847;SDS011;5983;49.966;8.052;2022-12-07T02:29:19;4.63;;;2.90;;
11847;SDS011;5983;49.966;8.052;2022-12-07T02:31:52;5.80;;;2.70;;
11847;SDS011;5983;49.966;8.052;2022-12-07T02:34:32;4.97;;;2.67;;
11847;SDS011;5983;49.966;8.052;2022-12-07T02:37:10;5.43;;;3.20;;
11847;SDS011;5983;49.966;8.052;2022-12-07T02:39:53;6.27;;;3.70;;
11847;SDS011;5983;49.966;8.052;2022-12-07T02:42:27;4.97;;;3.30;;
11847;SDS011;5983;49.966;8.052;2022-12-07T02:45:01;6.90;;;3.20;;
11847;SDS011;5983;49.966;8.052;2022-12-07T02:47:32;4.60;;;3.37;;
11847;SDS011;5983;49.966;8.052;2022-12-07T02:50:03;5.03;;;3.63;;
11847;SDS011;5983;49.966;8.052;2022-12-07T02:52:31;5.53;;;3.53;;
11847;SDS011;5983;49.966;8.052;2022-12-07T02:54:58;4.33;;;3.23;;
11847;SDS011;5983;49.966;8.052;2022-12-07T02:57:29;5.13;;;3.33;;
11847;SDS011;5983;49.966;8.052;2022-12-07T03:00:25;6.50;;;3.50;;
11847;SDS011;5983;49.966;8.052;2022-12-07T03:02:53;5.37;;;3.47;;
11847;SDS011;5983;49.966;8.052;2022-12-07T03:05:40;5.30;;;2.97;;
11847;SDS011;5983;49.966;8.052;2022-12-07T03:08:23;4.27;;;2.90;;
11847;SDS011;5983;49.966;8.052;2022-12-07T03:11:00;5.93;;;3.10;;
11847;SDS011;5983;49.966;8.052;2022-12-07T03:13:34;4.77;;;3.13;;
11847;SDS011;5983;49.966;8.052;2022-12-07T03:16:14;6.80;;;2.90;;
11847;SDS011;5983;49.966;8.052;2022-12-07T03:18:45;4.73;;;3.33;;
11847;SDS011;5983;49.966;8.052;2022-12-07T03:21:18;5.10;;;3.37;;
11847;SDS011;5983;49.966;8.052;2022-12-07T03:23:52;5.23;;;3.10;;
11847;SDS011;5983;49.966;8.052;2022-12-07T03:26:23;6.90;;;3.00;;
11847;SDS011;5983;49.966;8.052;2022-12-07T03:28:58;3.93;;;3.23;;
11847;SDS011;5983;49.966;8.052;2022-12-07T03:31:35;4.67;;;3.30;;
11847;SDS011;5983;49.966;8.052;2022-12-07T03:34:08;4.30;;;3.10;;
11847;SDS011;5983;49.966;8.052;2022-12-07T03:36:43;4.90;;;3.07;;
11847;SDS011;5983;49.966;8.052;2022-12-07T03:39:22;5.27;;;3.33;;
11847;SDS011;5983;49.966;8.052;2022-12-07T03:41:55;3.83;;;2.70;;
11847;SDS011;5983;49.966;8.052;2022-12-07T03:44:27;3.77;;;2.63;;
11847;SDS011;5983;49.966;8.052;2022-12-07T03:46:58;4.80;;;3.03;;
11847;SDS011;5983;49.966;8.052;2022-12-07T03:49:32;4.63;;;3.37;;
11847;SDS011;5983;49.966;8.052;2022-12-07T03:52:11;5.33;;;3.00;;
11847;SDS011;5983;49.966;8.052;2022-12-07T03:54:48;7.00;;;3.57;;
11847;SDS011;5983;49.966;8.052;2022-12-07T03:57:24;5.47;;;2.87;;
11847;SDS011;5983;49.966;8.052;2022-12-07T03:59:54;4.80;;;3.33;;
11847;SDS011;5983;49.966;8.052;2022-12-07T04:02:25;5.33;;;3.67;;
11847;SDS011;5983;49.966;8.052;2022-12-07T04:04:54;5.20;;;3.63;;
11847;SDS011;5983;49.966;8.052;2022-12-07T04:07:22;8.37;;;4.53;;
11847;SDS011;5983;49.966;8.052;2022-12-07T04:09:49;6.40;;;4.07;;
11847;SDS011;5983;49.966;8.052;2022-12-07T04:12:16;9.67;;;4.57;;
11847;SDS011;5983;49.966;8.052;2022-12-07T04:14:43;6.87;;;3.90;;
11847;SDS011;5983;49.966;8.052;2022-12-07T04:17:10;4.70;;;3.87;;
11847;SDS011;5983;49.966;8.052;2022-12-07T04:19:39;6.70;;;4.40;;
11847;SDS011;5983;49.966;8.052;2022-12-07T04:22:06;5.77;;;4.20;;
11847;SDS011;5983;49.966;8.052;2022-12-07T04:24:34;6.77;;;4.90;;
11847;SDS011;5983;49.966;8.052;2022-12-07T04:27:01;7.50;;;4.63;;
11847;SDS011;5983;49.966;8.052;2022-12-07T04:29:28;5.50;;;4.00;;
11847;SDS011;5983;49.966;8.052;2022-12-07T04:31:55;7.23;;;5.00;;
11847;SDS011;5983;49.966;8.052;2022-12-07T04:34:22;7.23;;;4.50;;
11847;SDS011;5983;49.966;8.052;2022-12-07T04:36:50;7.53;;;4.27;;
11847;SDS011;5983;49.966;8.052;2022-12-07T04:39:19;8.13;;;5.37;;
11847;SDS011;5983;49.966;8.052;2022-12-07T04:41:48;8.33;;;5.50;;
11847;SDS011;5983;49.966;8.052;2022-12-07T04:44:16;7.10;;;4.33;;
11847;SDS011;5983;49.966;8.052;2022-12-07T04:46:44;5.83;;;4.77;;
11847;SDS011;5983;49.966;8.052;2022-12-07T04:49:12;7.60;;;4.57;;
11847;SDS011;5983;49.966;8.052;2022-12-07T04:51:41;7.57;;;4.70;;
11847;SDS011;5983;49.966;8.052;2022-12-07T04:54:10;6.27;;;4.33;;
11847;SDS011;5983;49.966;8.052;2022-12-07T04:56:38;6.63;;;4.67;;
11847;SDS011;5983;49.966;8.052;2022-12-07T04:59:06;6.50;;;4.53;;
11847;SDS011;5983;49.966;8.052;2022-12-07T05:01:34;8.13;;;5.17;;
11847;SDS011;5983;49.966;8.052;2022-12-07T05:04:01;6.33;;;4.80;;
11847;SDS011;5983;49.966;8.052;2022-12-07T05:06:29;7.30;;;4.67;;
11847;SDS011;5983;49.966;8.052;2022-12-07T05:08:56;7.87;;;5.20;;
11847;SDS011;5983;49.966;8.052;2022-12-07T05:11:24;6.30;;;4.27;;
11847;SDS011;5983;49.966;8.052;2022-12-07T05:14:08;5.13;;;3.90;;
11847;SDS011;5983;49.966;8.052;2022-12-07T05:16:39;4.80;;;3.80;;
11847;SDS011;5983;49.966;8.052;2022-12-07T05:19:06;8.50;;;4.67;;
11847;SDS011;5983;49.966;8.052;2022-12-07T05:21:34;6.33;;;4.43;;
11847;SDS011;5983;49.966;8.052;2022-12-07T05:24:02;7.73;;;4.50;;
11847;SDS011;5983;49.966;8.052;2022-12-07T05:26:32;5.37;;;4.33;;
11847;SDS011;5983;49.966;8.052;2022-12-07T05:28:59;4.83;;;3.87;;
11847;SDS011;5983;49.966;8.052;2022-12-07T05:31:26;5.13;;;3.97;;
11847;SDS011;5983;49.966;8.052;2022-12-07T05:33:54;5.53;;;4.10;;
11847;SDS011;5983;49.966;8.052;2022-12-07T05:36:25;6.90;;;4.73;;
11847;SDS011;5983;49.966;8.052;2022-12-07T05:38:53;6.23;;;4.40;;
11847;SDS011;5983;49.966;8.052;2022-12-07T05:41:21;5.23;;;4.47;;
11847;SDS011;5983;49.966;8.052;2022-12-07T05:44:10;7.33;;;4.17;;
11847;SDS011;5983;49.966;8.052;2022-12-07T05:46:38;6.50;;;4.30;;
11847;SDS011;5983;49.966;8.052;2022-12-07T05:49:05;6.43;;;4.50;;
11847;SDS011;5983;49.966;8.052;2022-12-07T05:51:32;6.10;;;4.20;;
11847;SDS011;5983;49.966;8.052;2022-12-07T05:53:59;6.43;;;4.20;;
11847;SDS011;5983;49.966;8.052;2022-12-07T05:56:27;6.57;;;4.27;;
11847;SDS011;5983;49.966;8.052;2022-12-07T05:58:55;5.27;;;3.93;;
11847;SDS011;5983;49.966;8.052;2022-12-07T06:01:43;5.80;;;4.10;;
11847;SDS011;5983;49.966;8.052;2022-12-07T06:04:10;5.17;;;3.70;;
11847;SDS011;5983;49.966;8.052;2022-12-07T06:06:37;4.70;;;3.80;;
11847;SDS011;5983;49.966;8.052;2022-12-07T06:09:04;5.53;;;4.43;;
11847;SDS011;5983;49.966;8.052;2022-12-07T06:11:33;7.03;;;4.00;;
11847;SDS011;5983;49.966;8.052;2022-12-07T06:14:17;6.67;;;4.27;;
11847;SDS011;5983;49.966;8.052;2022-12-07T06:16:46;4.47;;;3.77;;
11847;SDS011;5983;49.966;8.052;2022-12-07T06:19:13;6.90;;;4.80;;
11847;SDS011;5983;49.966;8.052;2022-12-07T06:21:41;7.10;;;5.10;;
11847;SDS011;5983;49.966;8.052;2022-12-07T06:24:09;5.87;;;3.93;;
11847;SDS011;5983;49.966;8.052;2022-12-07T06:26:38;6.60;;;4.17;;
11847;SDS011;5983;49.966;8.052;2022-12-07T06:29:06;8.20;;;4.67;;
11847;SDS011;5983;49.966;8.052;2022-12-07T06:31:33;5.77;;;4.37;;
11847;SDS011;5983;49.966;8.052;2022-12-07T06:34:04;7.73;;;4.50;;
11847;SDS011;5983;49.966;8.052;2022-12-07T06:36:33;7.20;;;4.43;;
11847;SDS011;5983;49.966;8.052;2022-12-07T06:39:00;5.97;;;4.23;;
11847;SDS011;5983;49.966;8.052;2022-12-07T06:41:27;6.73;;;4.53;;
11847;SDS011;5983;49.966;8.052;2022-12-07T06:43:54;6.13;;;4.70;;
11847;SDS011;5983;49.966;8.052;2022-12-07T06:46:22;7.70;;;4.80;;
11847;SDS011;5983;49.966;8.052;2022-12-07T06:48:49;6.63;;;4.77;;
11847;SDS011;5983;49.966;8.052;2022-12-07T06:51:18;6.70;;;4.60;;
11847;SDS011;5983;49.966;8.052;2022-12-07T06:53:45;5.67;;;4.50;;
11847;SDS011;5983;49.966;8.052;2022-12-07T06:56:12;6.87;;;4.67;;
11847;SDS011;5983;49.966;8.052;2022-12-07T06:58:39;6.63;;;4.60;;
11847;SDS011;5983;49.966;8.052;2022-12-07T07:01:08;7.80;;;4.47;;
11847;SDS011;5983;49.966;8.052;2022-12-07T07:03:36;5.43;;;3.93;;
11847;SDS011;5983;49.966;8.052;2022-12-07T07:06:04;7.53;;;5.33;;
11847;SDS011;5983;49.966;8.052;2022-12-07T07:08:33;7.40;;;4.03;;
11847;SDS011;5983;49.966;8.052;2022-12-07T07:11:01;5.63;;;4.47;;
11847;SDS011;5983;49.966;8.052;2022-12-07T07:13:28;6.87;;;4.67;;
11847;SDS011;5983;49.966;8.052;2022-12-07T07:15:55;6.13;;;4.23;;
11847;SDS011;5983;49.966;8.052;2022-12-07T07:18:22;5.87;;;3.80;;
11847;SDS011;5983;49.966;8.052;2022-12-07T07:20:50;6.57;;;3.93;;
11847;SDS011;5983;49.966;8.052;2022-12-07T07:23:18;5.57;;;4.00;;
11847;SDS011;5983;49.966;8.052;2022-12-07T07:25:46;6.37;;;4.10;;
11847;SDS011;5983;49.966;8.052;2022-12-07T07:28:13;5.87;;;4.47;;
11847;SDS011;5983;49.966;8.052;2022-12-07T07:30:41;5.97;;;4.37;;
11847;SDS011;5983;49.966;8.052;2022-12-07T07:33:09;6.57;;;4.50;;
11847;SDS011;5983;49.966;8.052;2022-12-07T07:35:36;5.97;;;4.27;;
11847;SDS011;5983;49.966;8.052;2022-12-07T07:38:04;5.67;;;4.17;;
11847;SDS011;5983;49.966;8.052;2022-12-07T07:40:32;4.17;;;3.23;;
11847;SDS011;5983;49.966;8.052;2022-12-07T07:43:00;5.37;;;3.87;;
11847;SDS011;5983;49.966;8.052;2022-12-07T07:45:27;6.93;;;4.73;;
11847;SDS011;5983;49.966;8.052;2022-12-07T07:47:55;17.80;;;11.03;;
11847;SDS011;5983;49.966;8.052;2022-12-07T07:50:22;19.80;;;11.47;;
11847;SDS011;5983;49.966;8.052;2022-12-07T07:52:49;12.57;;;9.40;;
11847;SDS011;5983;49.966;8.052;2022-12-07T07:55:17;13.30;;;9.10;;
11847;SDS011;5983;49.966;8.052;2022-12-07T07:57:44;11.33;;;7.97;;
11847;SDS011;5983;49.966;8.052;2022-12-07T08:00:14;8.47;;;6.17;;
11847;SDS011;5983;49.966;8.052;2022-12-07T08:02:42;7.63;;;4.80;;
11847;SDS011;5983;49.966;8.052;2022-12-07T08:05:11;6.50;;;5.10;;
11847;SDS011;5983;49.966;8.052;2022-12-07T08:07:39;6.47;;;4.63;;
11847;SDS011;5983;49.966;8.052;2022-12-07T08:10:07;6.00;;;4.43;;
11847;SDS011;5983;49.966;8.052;2022-12-07T08:12:37;4.93;;;3.60;;
11847;SDS011;5983;49.966;8.052;2022-12-07T08:15:27;5.70;;;4.07;;
11847;SDS011;5983;49.966;8.052;2022-12-07T08:17:56;6.63;;;3.93;;
11847;SDS011;5983;49.966;8.052;2022-12-07T08:20:22;6.50;;;4.33;;
11847;SDS011;5983;49.966;8.052;2022-12-07T08:22:49;4.80;;;3.73;;
11847;SDS011;5983;49.966;8.052;2022-12-07T08:25:17;4.93;;;3.30;;
11847;SDS011;5983;49.966;8.052;2022-12-07T08:27:44;5.00;;;3.60;;
11847;SDS011;5983;49.966;8.052;2022-12-07T08:30:11;5.13;;;3.63;;
11847;SDS011;5983;49.966;8.052;2022-12-07T08:32:40;5.73;;;3.63;;
11847;SDS011;5983;49.966;8.052;2022-12-07T08:35:07;5.63;;;3.73;;
11847;SDS011;5983;49.966;8.052;2022-12-07T08:37:35;6.87;;;4.43;;
11847;SDS011;5983;49.966;8.052;2022-12-07T08:40:03;6.10;;;4.73;;
11847;SDS011;5983;49.966;8.052;2022-12-07T08:42:33;7.43;;;5.13;;
11847;SDS011;5983;49.966;8.052;2022-12-07T08:45:05;6.00;;;4.87;;
11847;SDS011;5983;49.966;8.052;2022-12-07T08:47:34;7.77;;;4.33;;
11847;SDS011;5983;49.966;8.052;2022-12-07T08:50:06;8.70;;;5.10;;
11847;SDS011;5983;49.966;8.052;2022-12-07T08:52:36;10.17;;;5.23;;
11847;SDS011;5983;49.966;8.052;2022-12-07T08:55:07;6.73;;;4.73;;
11847;SDS011;5983;49.966;8.052;2022-12-07T08:57:36;6.17;;;4.03;;
11847;SDS011;5983;49.966;8.052;2022-12-07T09:00:05;6.60;;;3.90;;
11847;SDS011;5983;49.966;8.052;2022-12-07T09:02:34;5.20;;;3.40;;
11847;SDS011;5983;49.966;8.052;2022-12-07T09:05:01;5.93;;;3.13;;
11847;SDS011;5983;49.966;8.052;2022-12-07T09:07:30;3.80;;;2.50;;
11847;SDS011;5983;49.966;8.052;2022-12-07T09:09:59;3.90;;;2.50;;
11847;SDS011;5983;49.966;8.052;2022-12-07T09:12:27;3.07;;;2.40;;
11847;SDS011;5983;49.966;8.052;2022-12-07T09:14:53;2.60;;;2.10;;
11847;SDS011;5983;49.966;8.052;2022-12-07T09:17:21;2.70;;;2.37;;
11847;SDS011;5983;49.966;8.052;2022-12-07T09:19:49;3.87;;;2.47;;
11847;SDS011;5983;49.966;8.052;2022-12-07T09:22:16;8.03;;;2.60;;
11847;SDS011;5983;49.966;8.052;2022-12-07T09:24:44;5.17;;;2.73;;
11847;SDS011;5983;49.966;8.052;2022-12-07T09:27:11;4.27;;;2.87;;
11847;SDS011;5983;49.966;8.052;2022-12-07T09:29:38;3.73;;;2.57;;
11847;SDS011;5983;49.966;8.052;2022-12-07T09:32:05;4.07;;;3.13;;
11847;SDS011;5983;49.966;8.052;2022-12-07T09:34:32;4.07;;;3.10;;
11847;SDS011;5983;49.966;8.052;2022-12-07T09:37:00;5.47;;;3.60;;
11847;SDS011;5983;49.966;8.052;2022-12-07T09:39:29;4.37;;;2.83;;
11847;SDS011;5983;49.966;8.052;2022-12-07T09:41:57;6.23;;;3.77;;
11847;SDS011;5983;49.966;8.052;2022-12-07T09:44:28;5.63;;;4.00;;
11847;SDS011;5983;49.966;8.052;2022-12-07T09:46:55;8.90;;;3.80;;
11847;SDS011;5983;49.966;8.052;2022-12-07T09:49:24;5.57;;;3.60;;
11847;SDS011;5983;49.966;8.052;2022-12-07T09:51:59;6.80;;;4.27;;
11847;SDS011;5983;49.966;8.052;2022-12-07T09:54:30;7.30;;;5.07;;
11847;SDS011;5983;49.966;8.052;2022-12-07T09:57:03;10.47;;;6.67;;
11847;SDS011;5983;49.966;8.052;2022-12-07T09:59:30;9.63;;;5.23;;
11847;SDS011;5983;49.966;8.052;2022-12-07T10:01:57;7.23;;;3.90;;
11847;SDS011;5983;49.966;8.052;2022-12-07T10:04:50;7.17;;;3.70;;
11847;SDS011;5983;49.966;8.052;2022-12-07T10:07:18;5.77;;;3.17;;
11847;SDS011;5983;49.966;8.052;2022-12-07T10:09:45;5.10;;;2.70;;
11847;SDS011;5983;49.966;8.052;2022-12-07T10:12:13;4.83;;;2.50;;
11847;SDS011;5983;49.966;8.052;2022-12-07T10:14:49;4.00;;;1.90;;
11847;SDS011;5983;49.966;8.052;2022-12-07T10:17:27;3.57;;;1.53;;
11847;SDS011;5983;49.966;8.052;2022-12-07T10:20:17;3.40;;;1.53;;
11847;SDS011;5983;49.966;8.052;2022-12-07T10:22:54;1.83;;;1.30;;
11847;SDS011;5983;49.966;8.052;2022-12-07T10:25:25;2.83;;;1.23;;
11847;SDS011;5983;49.966;8.052;2022-12-07T10:27:58;2.50;;;1.47;;
11847;SDS011;5983;49.966;8.052;2022-12-07T10:30:28;1.70;;;1.00;;
11847;SDS011;5983;49.966;8.052;2022-12-07T10:32:57;2.97;;;0.90;;
11847;SDS011;5983;49.966;8.052;2022-12-07T10:35:25;1.93;;;0.93;;
11847;SDS011;5983;49.966;8.052;2022-12-07T10:37:54;1.27;;;0.63;;
11847;SDS011;5983;49.966;8.052;2022-12-07T10:40:28;1.67;;;0.90;;
11847;SDS011;5983;49.966;8.052;2022-12-07T10:43:05;3.40;;;1.00;;
11847;SDS011;5983;49.966;8.052;2022-12-07T10:45:55;2.93;;;1.27;;
11847;SDS011;5983;49.966;8.052;2022-12-07T10:48:57;3.17;;;1.50;;
11847;SDS011;5983;49.966;8.052;2022-12-07T10:51:40;2.73;;;1.30;;
11847;SDS011;5983;49.966;8.052;2022-12-07T10:54:17;4.03;;;1.20;;
11847;SDS011;5983;49.966;8.052;2022-12-07T10:57:09;2.30;;;1.40;;
11847;SDS011;5983;49.966;8.052;2022-12-07T11:00:06;8.43;;;3.70;;
11847;SDS011;5983;49.966;8.052;2022-12-07T11:02:46;3.87;;;1.57;;
11847;SDS011;5983;49.966;8.052;2022-12-07T11:05:33;1.70;;;1.17;;
11847;SDS011;5983;49.966;8.052;2022-12-07T11:08:13;1.20;;;0.70;;
11847;SDS011;5983;49.966;8.052;2022-12-07T11:10:49;1.53;;;1.10;;
11847;SDS011;5983;49.966;8.052;2022-12-07T11:13:26;1.77;;;1.00;;
11847;SDS011;5983;49.966;8.052;2022-12-07T11:16:14;2.10;;;0.93;;
11847;SDS011;5983;49.966;8.052;2022-12-07T11:18:59;1.50;;;0.70;;
11847;SDS011;5983;49.966;8.052;2022-12-07T11:21:45;2.03;;;0.90;;
11847;SDS011;5983;49.966;8.052;2022-12-07T11:24:23;0.70;;;0.60;;
11847;SDS011;5983;49.966;8.052;2022-12-07T11:27:08;1.73;;;0.80;;
11847;SDS011;5983;49.966;8.052;2022-12-07T11:29:54;2.17;;;1.03;;
11847;SDS011;5983;49.966;8.052;2022-12-07T11:32:42;1.97;;;0.90;;
11847;SDS011;5983;49.966;8.052;2022-12-07T11:35:38;1.47;;;0.90;;
11847;SDS011;5983;49.966;8.052;2022-12-07T11:38:33;0.97;;;0.87;;
11847;SDS011;5983;49.966;8.052;2022-12-07T11:41:09;1.37;;;0.90;;
11847;SDS011;5983;49.966;8.052;2022-12-07T11:43:42;1.63;;;0.90;;
11847;SDS011;5983;49.966;8.052;2022-12-07T11:46:22;2.33;;;0.83;;
11847;SDS011;5983;49.966;8.052;2022-12-07T11:48:58;3.70;;;1.10;;
11847;SDS011;5983;49.966;8.052;2022-12-07T11:51:35;2.17;;;1.00;;
11847;SDS011;5983;49.966;8.052;2022-12-07T11:54:09;3.03;;;1.00;;
11847;SDS011;5983;49.966;8.052;2022-12-07T11:56:42;3.63;;;1.03;;
11847;SDS011;5983;49.966;8.052;2022-12-07T11:59:13;2.50;;;1.23;;
11847;SDS011;5983;49.966;8.052;2022-12-07T12:01:51;1.83;;;0.90;;
11847;SDS011;5983;49.966;8.052;2022-12-07T12:04:31;5.50;;;1.00;;
11847;SDS011;5983;49.966;8.052;2022-12-07T12:07:14;2.43;;;1.23;;
11847;SDS011;5983;49.966;8.052;2022-12-07T12:09:48;2.67;;;1.30;;
11847;SDS011;5983;49.966;8.052;2022-12-07T12:15:26;3.80;;;1.67;;
11847;SDS011;5983;49.966;8.052;2022-12-07T12:18:18;5.00;;;2.27;;
11847;SDS011;5983;49.966;8.052;2022-12-07T12:21:06;7.13;;;3.40;;
11847;SDS011;5983;49.966;8.052;2022-12-07T12:23:39;3.13;;;2.30;;
11847;SDS011;5983;49.966;8.052;2022-12-07T12:26:14;5.73;;;2.63;;
11847;SDS011;5983;49.966;8.052;2022-12-07T12:28:49;4.50;;;3.67;;
11847;SDS011;5983;49.966;8.052;2022-12-07T12:31:31;14.80;;;7.60;;
11847;SDS011;5983;49.966;8.052;2022-12-07T12:34:10;9.40;;;5.40;;
11847;SDS011;5983;49.966;8.052;2022-12-07T12:37:08;6.93;;;3.93;;
11847;SDS011;5983;49.966;8.052;2022-12-07T13:04:27;1.57;;;0.83;;
11847;SDS011;5983;49.966;8.052;2022-12-07T13:10:39;2.77;;;0.87;;
11847;SDS011;5983;49.966;8.052;2022-12-07T13:22:39;2.07;;;0.83;;
11847;SDS011;5983;49.966;8.052;2022-12-07T13:25:12;1.60;;;0.90;;
11847;SDS011;5983;49.966;8.052;2022-12-07T13:27:57;1.60;;;1.07;;
11847;SDS011;5983;49.966;8.052;2022-12-07T13:30:33;4.47;;;1.20;;
11847;SDS011;5983;49.966;8.052;2022-12-07T13:33:13;5.27;;;3.30;;
11847;SDS011;5983;49.966;8.052;2022-12-07T13:35:44;5.87;;;2.40;;
11847;SDS011;5983;49.966;8.052;2022-12-07T13:38:17;3.10;;;1.47;;
11847;SDS011;5983;49.966;8.052;2022-12-07T13:43:50;2.43;;;0.77;;
11847;SDS011;5983;49.966;8.052;2022-12-07T13:46:24;0.97;;;0.70;;
11847;SDS011;5983;49.966;8.052;2022-12-07T13:49:15;1.43;;;0.50;;
11847;SDS011;5983;49.966;8.052;2022-12-07T13:51:48;2.10;;;0.70;;
11847;SDS011;5983;49.966;8.052;2022-12-07T13:54:17;0.93;;;0.60;;
11847;SDS011;5983;49.966;8.052;2022-12-07T13:56:47;1.20;;;0.73;;
11847;SDS011;5983;49.966;8.052;2022-12-07T13:59:19;1.50;;;0.90;;
11847;SDS011;5983;49.966;8.052;2022-12-07T14:01:49;1.70;;;1.00;;
11847;SDS011;5983;49.966;8.052;2022-12-07T14:04:29;1.20;;;1.00;;
11847;SDS011;5983;49.966;8.052;2022-12-07T14:07:00;1.57;;;0.90;;
11847;SDS011;5983;49.966;8.052;2022-12-07T14:09:53;1.77;;;0.80;;
11847;SDS011;5983;49.966;8.052;2022-12-07T14:12:25;2.00;;;0.80;;
11847;SDS011;5983;49.966;8.052;2022-12-07T14:14:55;1.80;;;0.97;;
11847;SDS011;5983;49.966;8.052;2022-12-07T14:17:24;1.83;;;1.07;;
11847;SDS011;5983;49.966;8.052;2022-12-07T14:19:53;1.67;;;0.80;;
11847;SDS011;5983;49.966;8.052;2022-12-07T14:22:29;2.37;;;0.90;;
11847;SDS011;5983;49.966;8.052;2022-12-07T14:25:00;1.17;;;0.90;;
11847;SDS011;5983;49.966;8.052;2022-12-07T14:27:53;0.60;;;0.60;;
11847;SDS011;5983;49.966;8.052;2022-12-07T14:30:25;3.20;;;1.10;;
11847;SDS011;5983;49.966;8.052;2022-12-07T14:32:56;1.43;;;0.80;;
11847;SDS011;5983;49.966;8.052;2022-12-07T14:35:26;1.97;;;1.03;;
11847;SDS011;5983;49.966;8.052;2022-12-07T14:37:54;4.50;;;1.10;;
11847;SDS011;5983;49.966;8.052;2022-12-07T14:40:22;3.33;;;0.93;;
11847;SDS011;5983;49.966;8.052;2022-12-07T14:42:52;1.00;;;0.70;;
11847;SDS011;5983;49.966;8.052;2022-12-07T14:45:25;3.17;;;0.80;;
11847;SDS011;5983;49.966;8.052;2022-12-07T14:47:52;3.47;;;1.20;;
11847;SDS011;5983;49.966;8.052;2022-12-07T14:50:19;2.00;;;1.00;;
11847;SDS011;5983;49.966;8.052;2022-12-07T14:52:48;4.23;;;1.20;;
11847;SDS011;5983;49.966;8.052;2022-12-07T14:55:22;1.27;;;0.97;;
11847;SDS011;5983;49.966;8.052;2022-12-07T14:57:51;1.47;;;0.93;;
11847;SDS011;5983;49.966;8.052;2022-12-07T15:00:18;3.77;;;1.20;;
11847;SDS011;5983;49.966;8.052;2022-12-07T15:02:49;1.30;;;0.83;;
11847;SDS011;5983;49.966;8.052;2022-12-07T15:05:17;2.47;;;1.13;;
11847;SDS011;5983;49.966;8.052;2022-12-07T15:07:45;3.57;;;1.00;;
11847;SDS011;5983;49.966;8.052;2022-12-07T15:10:14;2.53;;;0.80;;
11847;SDS011;5983;49.966;8.052;2022-12-07T15:12:45;1.47;;;0.80;;
11847;SDS011;5983;49.966;8.052;2022-12-07T15:15:13;1.43;;;0.90;;
11847;SDS011;5983;49.966;8.052;2022-12-07T15:17:42;3.07;;;1.50;;
11847;SDS011;5983;49.966;8.052;2022-12-07T15:20:11;0.77;;;0.77;;
11847;SDS011;5983;49.966;8.052;2022-12-07T15:22:41;2.47;;;0.80;;
11847;SDS011;5983;49.966;8.052;2022-12-07T15:25:08;2.80;;;0.80;;
11847;SDS011;5983;49.966;8.052;2022-12-07T15:27:39;1.10;;;0.60;;
11847;SDS011;5983;49.966;8.052;2022-12-07T15:30:06;1.80;;;0.70;;
11847;SDS011;5983;49.966;8.052;2022-12-07T15:32:34;2.80;;;1.07;;
11847;SDS011;5983;49.966;8.052;2022-12-07T15:35:01;4.97;;;1.10;;
11847;SDS011;5983;49.966;8.052;2022-12-07T15:37:29;1.60;;;0.93;;
11847;SDS011;5983;49.966;8.052;2022-12-07T15:39:56;1.47;;;0.70;;
11847;SDS011;5983;49.966;8.052;2022-12-07T15:42:23;5.97;;;2.17;;
11847;SDS011;5983;49.966;8.052;2022-12-07T15:44:50;13.40;;;7.30;;
11847;SDS011;5983;49.966;8.052;2022-12-07T15:47:31;7.23;;;4.03;;
11847;SDS011;5983;49.966;8.052;2022-12-07T15:50:01;5.07;;;2.47;;
11847;SDS011;5983;49.966;8.052;2022-12-07T15:52:30;2.90;;;1.30;;
11847;SDS011;5983;49.966;8.052;2022-12-07T15:54:57;2.00;;;1.27;;
11847;SDS011;5983;49.966;8.052;2022-12-07T15:57:24;1.90;;;0.90;;
11847;SDS011;5983;49.966;8.052;2022-12-07T15:59:52;9.40;;;5.03;;
11847;SDS011;5983;49.966;8.052;2022-12-07T16:02:19;11.70;;;4.87;;
11847;SDS011;5983;49.966;8.052;2022-12-07T16:04:47;3.27;;;2.10;;
11847;SDS011;5983;49.966;8.052;2022-12-07T16:07:15;4.47;;;1.70;;
11847;SDS011;5983;49.966;8.052;2022-12-07T16:09:44;2.90;;;1.10;;
11847;SDS011;5983;49.966;8.052;2022-12-07T16:12:12;2.40;;;1.10;;
11847;SDS011;5983;49.966;8.052;2022-12-07T16:14:40;2.57;;;1.20;;
11847;SDS011;5983;49.966;8.052;2022-12-07T16:17:07;1.97;;;1.13;;
11847;SDS011;5983;49.966;8.052;2022-12-07T16:19:36;2.70;;;1.17;;
11847;SDS011;5983;49.966;8.052;2022-12-07T16:22:03;2.93;;;1.43;;
11847;SDS011;5983;49.966;8.052;2022-12-07T16:24:31;1.80;;;1.00;;